sensor_id;sensor_type;location;lat;lon;timestamp;temperature;humidity
29547;DHT22;40782;47.264;11.330;2023-03-31T00:02:12;7.30;99.90
29547;DHT22;40782;47.264;11.330;2023-03-31T00:04:39;7.30;99.90
29547;DHT22;40782;47.264;11.330;2023-03-31T00:07:11;7.30;99.90
29547;DHT22;40782;47.264;11.330;2023-03-31T00:09:38;7.40;99.90
29547;DHT22;40782;47.264;11.330;2023-03-31T00:12:11;7.40;99.90
29547;DHT22;40782;47.264;11.330;2023-03-31T00:14:38;7.40;99.90
29547;DHT22;40782;47.264;11.330;2023-03-31T00:17:07;7.40;99.90
29547;DHT22;40782;47.264;11.330;2023-03-31T00:19:34;7.40;99.90
29547;DHT22;40782;47.264;11.330;2023-03-31T00:22:01;7.30;99.90
29547;DHT22;40782;47.264;11.330;2023-03-31T00:24:30;7.20;99.90
29547;DHT22;40782;47.264;11.330;2023-03-31T00:26:57;7.20;99.90
29547;DHT22;40782;47.264;11.330;2023-03-31T00:29:24;7.20;99.90
29547;DHT22;40782;47.264;11.330;2023-03-31T00:31:52;7.30;99.90
29547;DHT22;40782;47.264;11.330;2023-03-31T00:34:21;7.20;99.90
29547;DHT22;40782;47.264;11.330;2023-03-31T00:36:48;7.30;99.90
29547;DHT22;40782;47.264;11.330;2023-03-31T00:39:15;7.30;99.90
29547;DHT22;40782;47.264;11.330;2023-03-31T00:41:43;7.20;99.90
29547;DHT22;40782;47.264;11.330;2023-03-31T00:44:11;7.00;99.90
29547;DHT22;40782;47.264;11.330;2023-03-31T00:46:43;7.00;99.90
29547;DHT22;40782;47.264;11.330;2023-03-31T00:49:13;7.10;99.90
29547;DHT22;40782;47.264;11.330;2023-03-31T00:51:43;7.10;99.90
29547;DHT22;40782;47.264;11.330;2023-03-31T00:54:11;7.20;99.90
29547;DHT22;40782;47.264;11.330;2023-03-31T00:56:41;7.20;99.90
29547;DHT22;40782;47.264;11.330;2023-03-31T00:59:10;7.10;99.90
29547;DHT22;40782;47.264;11.330;2023-03-31T01:01:39;7.00;99.90
29547;DHT22;40782;47.264;11.330;2023-03-31T01:04:08;7.10;99.90
29547;DHT22;40782;47.264;11.330;2023-03-31T01:06:36;7.20;99.90
29547;DHT22;40782;47.264;11.330;2023-03-31T01:09:08;7.10;99.90
29547;DHT22;40782;47.264;11.330;2023-03-31T01:11:35;7.20;99.90
29547;DHT22;40782;47.264;11.330;2023-03-31T01:14:03;7.20;99.90
29547;DHT22;40782;47.264;11.330;2023-03-31T01:16:30;7.20;99.90
29547;DHT22;40782;47.264;11.330;2023-03-31T01:18:58;7.20;99.90
29547;DHT22;40782;47.264;11.330;2023-03-31T01:24:20;7.10;99.90
29547;DHT22;40782;47.264;11.330;2023-03-31T01:27:05;7.00;99.90
29547;DHT22;40782;47.264;11.330;2023-03-31T01:29:42;7.10;99.90
29547;DHT22;40782;47.264;11.330;2023-03-31T01:32:22;7.00;99.90
29547;DHT22;40782;47.264;11.330;2023-03-31T01:43:18;6.60;43.40
29547;DHT22;40782;47.264;11.330;2023-03-31T01:45:50;6.40;99.90
29547;DHT22;40782;47.264;11.330;2023-03-31T01:48:22;6.40;99.90
29547;DHT22;40782;47.264;11.330;2023-03-31T01:50:52;6.50;99.90
29547;DHT22;40782;47.264;11.330;2023-03-31T01:53:22;6.60;99.90
29547;DHT22;40782;47.264;11.330;2023-03-31T01:55:55;6.60;99.90
29547;DHT22;40782;47.264;11.330;2023-03-31T01:58:27;6.70;99.90
29547;DHT22;40782;47.264;11.330;2023-03-31T02:00:58;6.60;99.90
29547;DHT22;40782;47.264;11.330;2023-03-31T02:03:29;6.60;99.90
29547;DHT22;40782;47.264;11.330;2023-03-31T02:05:57;6.50;99.90
29547;DHT22;40782;47.264;11.330;2023-03-31T02:08:27;6.40;99.90
29547;DHT22;40782;47.264;11.330;2023-03-31T02:10:55;6.40;99.90
29547;DHT22;40782;47.264;11.330;2023-03-31T02:13:23;6.50;99.90
29547;DHT22;40782;47.264;11.330;2023-03-31T02:15:54;6.40;99.90
29547;DHT22;40782;47.264;11.330;2023-03-31T02:18:24;6.20;99.90
29547;DHT22;40782;47.264;11.330;2023-03-31T02:20:52;6.20;99.90
29547;DHT22;40782;47.264;11.330;2023-03-31T02:23:22;6.10;99.90
29547;DHT22;40782;47.264;11.330;2023-03-31T02:25:55;6.00;99.90
29547;DHT22;40782;47.264;11.330;2023-03-31T02:28:25;5.90;99.90
29547;DHT22;40782;47.264;11.330;2023-03-31T02:30:57;5.90;99.90
29547;DHT22;40782;47.264;11.330;2023-03-31T02:33:29;6.00;99.90
29547;DHT22;40782;47.264;11.330;2023-03-31T02:35:56;6.10;99.90
29547;DHT22;40782;47.264;11.330;2023-03-31T02:38:23;5.90;99.90
29547;DHT22;40782;47.264;11.330;2023-03-31T02:40:50;5.80;99.90
29547;DHT22;40782;47.264;11.330;2023-03-31T02:43:17;5.80;99.90
29547;DHT22;40782;47.264;11.330;2023-03-31T02:45:45;5.90;99.90
29547;DHT22;40782;47.264;11.330;2023-03-31T02:48:15;6.00;99.90
29547;DHT22;40782;47.264;11.330;2023-03-31T02:50:48;5.90;99.90
29547;DHT22;40782;47.264;11.330;2023-03-31T02:53:17;5.80;99.90
29547;DHT22;40782;47.264;11.330;2023-03-31T02:55:48;5.90;99.90
29547;DHT22;40782;47.264;11.330;2023-03-31T02:58:22;5.80;99.90
29547;DHT22;40782;47.264;11.330;2023-03-31T03:00:57;5.80;99.90
29547;DHT22;40782;47.264;11.330;2023-03-31T03:03:31;6.00;99.90
29547;DHT22;40782;47.264;11.330;2023-03-31T03:06:03;6.20;99.90
29547;DHT22;40782;47.264;11.330;2023-03-31T03:08:35;6.30;99.90
29547;DHT22;40782;47.264;11.330;2023-03-31T03:11:10;6.30;99.90
29547;DHT22;40782;47.264;11.330;2023-03-31T03:13:44;6.20;99.90
29547;DHT22;40782;47.264;11.330;2023-03-31T03:16:14;6.30;99.90
29547;DHT22;40782;47.264;11.330;2023-03-31T03:18:45;6.40;99.90
29547;DHT22;40782;47.264;11.330;2023-03-31T03:21:18;6.30;99.90
29547;DHT22;40782;47.264;11.330;2023-03-31T03:23:45;6.20;99.90
29547;DHT22;40782;47.264;11.330;2023-03-31T03:26:12;6.30;99.90
29547;DHT22;40782;47.264;11.330;2023-03-31T03:28:39;6.40;99.90
29547;DHT22;40782;47.264;11.330;2023-03-31T03:31:06;6.30;99.90
29547;DHT22;40782;47.264;11.330;2023-03-31T03:33:33;6.40;99.90
29547;DHT22;40782;47.264;11.330;2023-03-31T03:36:02;6.40;99.90
29547;DHT22;40782;47.264;11.330;2023-03-31T03:38:29;6.30;99.90
29547;DHT22;40782;47.264;11.330;2023-03-31T03:40:56;6.30;99.90
29547;DHT22;40782;47.264;11.330;2023-03-31T03:43:23;6.40;99.90
29547;DHT22;40782;47.264;11.330;2023-03-31T03:45:50;6.40;99.90
29547;DHT22;40782;47.264;11.330;2023-03-31T03:48:17;6.30;99.90
29547;DHT22;40782;47.264;11.330;2023-03-31T03:50:45;6.30;99.90
29547;DHT22;40782;47.264;11.330;2023-03-31T03:53:13;6.40;99.90
29547;DHT22;40782;47.264;11.330;2023-03-31T03:55:40;6.50;99.90
29547;DHT22;40782;47.264;11.330;2023-03-31T03:58:07;6.60;99.90
29547;DHT22;40782;47.264;11.330;2023-03-31T04:00:34;6.50;99.90
29547;DHT22;40782;47.264;11.330;2023-03-31T04:03:02;6.30;99.90
29547;DHT22;40782;47.264;11.330;2023-03-31T04:05:29;6.20;99.90
29547;DHT22;40782;47.264;11.330;2023-03-31T04:07:56;6.30;99.90
29547;DHT22;40782;47.264;11.330;2023-03-31T04:10:24;6.40;99.90
29547;DHT22;40782;47.264;11.330;2023-03-31T04:12:51;6.20;99.90
29547;DHT22;40782;47.264;11.330;2023-03-31T04:15:18;6.20;99.90
29547;DHT22;40782;47.264;11.330;2023-03-31T04:17:46;6.20;99.90
29547;DHT22;40782;47.264;11.330;2023-03-31T04:20:15;6.20;99.90
29547;DHT22;40782;47.264;11.330;2023-03-31T04:22:42;6.10;99.90
29547;DHT22;40782;47.264;11.330;2023-03-31T04:25:12;6.10;99.90
29547;DHT22;40782;47.264;11.330;2023-03-31T04:27:42;6.00;99.90
29547;DHT22;40782;47.264;11.330;2023-03-31T04:30:12;5.90;99.90
29547;DHT22;40782;47.264;11.330;2023-03-31T04:32:47;5.90;99.90
29547;DHT22;40782;47.264;11.330;2023-03-31T04:35:15;5.90;99.90
29547;DHT22;40782;47.264;11.330;2023-03-31T04:37:43;5.80;99.90
29547;DHT22;40782;47.264;11.330;2023-03-31T04:40:10;5.90;99.90
29547;DHT22;40782;47.264;11.330;2023-03-31T04:42:37;6.00;99.90
29547;DHT22;40782;47.264;11.330;2023-03-31T04:45:06;5.90;99.90
29547;DHT22;40782;47.264;11.330;2023-03-31T04:47:33;5.90;99.90
29547;DHT22;40782;47.264;11.330;2023-03-31T04:50:00;6.10;99.90
29547;DHT22;40782;47.264;11.330;2023-03-31T04:52:27;6.10;99.90
29547;DHT22;40782;47.264;11.330;2023-03-31T04:54:54;6.20;99.90
29547;DHT22;40782;47.264;11.330;2023-03-31T04:57:21;6.30;99.90
29547;DHT22;40782;47.264;11.330;2023-03-31T04:59:48;6.30;99.90
29547;DHT22;40782;47.264;11.330;2023-03-31T05:02:17;6.30;99.90
29547;DHT22;40782;47.264;11.330;2023-03-31T05:04:48;6.40;99.90
29547;DHT22;40782;47.264;11.330;2023-03-31T05:07:16;6.30;99.90
29547;DHT22;40782;47.264;11.330;2023-03-31T05:09:43;6.10;99.90
29547;DHT22;40782;47.264;11.330;2023-03-31T05:12:11;6.10;99.90
29547;DHT22;40782;47.264;11.330;2023-03-31T05:14:41;6.10;99.90
29547;DHT22;40782;47.264;11.330;2023-03-31T05:17:08;6.20;99.90
29547;DHT22;40782;47.264;11.330;2023-03-31T05:19:36;6.20;99.90
29547;DHT22;40782;47.264;11.330;2023-03-31T05:22:03;6.30;99.90
29547;DHT22;40782;47.264;11.330;2023-03-31T05:24:30;6.30;99.90
29547;DHT22;40782;47.264;11.330;2023-03-31T05:26:57;6.40;99.90
29547;DHT22;40782;47.264;11.330;2023-03-31T05:29:24;6.50;99.90
29547;DHT22;40782;47.264;11.330;2023-03-31T05:31:51;6.50;99.90
29547;DHT22;40782;47.264;11.330;2023-03-31T05:34:18;6.40;99.90
29547;DHT22;40782;47.264;11.330;2023-03-31T05:36:47;6.50;99.90
29547;DHT22;40782;47.264;11.330;2023-03-31T05:39:17;6.50;99.90
29547;DHT22;40782;47.264;11.330;2023-03-31T05:41:45;6.50;99.90
29547;DHT22;40782;47.264;11.330;2023-03-31T05:44:12;6.60;99.90
29547;DHT22;40782;47.264;11.330;2023-03-31T05:46:39;6.70;99.90
29547;DHT22;40782;47.264;11.330;2023-03-31T05:49:06;6.60;99.90
29547;DHT22;40782;47.264;11.330;2023-03-31T05:51:34;6.40;99.90
29547;DHT22;40782;47.264;11.330;2023-03-31T05:54:02;6.40;99.90
29547;DHT22;40782;47.264;11.330;2023-03-31T05:56:30;6.40;99.90
29547;DHT22;40782;47.264;11.330;2023-03-31T05:58:58;6.40;99.90
29547;DHT22;40782;47.264;11.330;2023-03-31T06:01:25;6.40;99.90
29547;DHT22;40782;47.264;11.330;2023-03-31T06:03:52;6.30;99.90
29547;DHT22;40782;47.264;11.330;2023-03-31T06:06:19;6.30;99.90
29547;DHT22;40782;47.264;11.330;2023-03-31T06:08:47;6.30;99.90
29547;DHT22;40782;47.264;11.330;2023-03-31T06:11:16;6.20;99.90
29547;DHT22;40782;47.264;11.330;2023-03-31T06:13:44;6.20;99.90
29547;DHT22;40782;47.264;11.330;2023-03-31T06:16:12;6.20;99.90
29547;DHT22;40782;47.264;11.330;2023-03-31T06:18:39;6.30;99.90
29547;DHT22;40782;47.264;11.330;2023-03-31T06:21:07;6.30;99.90
29547;DHT22;40782;47.264;11.330;2023-03-31T06:23:34;6.40;99.90
29547;DHT22;40782;47.264;11.330;2023-03-31T06:26:02;6.30;99.90
29547;DHT22;40782;47.264;11.330;2023-03-31T06:28:30;6.50;99.90
29547;DHT22;40782;47.264;11.330;2023-03-31T06:31:01;6.50;99.90
29547;DHT22;40782;47.264;11.330;2023-03-31T06:33:28;6.60;99.90
29547;DHT22;40782;47.264;11.330;2023-03-31T06:35:55;6.70;99.90
29547;DHT22;40782;47.264;11.330;2023-03-31T06:38:24;6.80;99.90
29547;DHT22;40782;47.264;11.330;2023-03-31T06:40:51;6.90;99.90
29547;DHT22;40782;47.264;11.330;2023-03-31T06:43:18;7.00;99.90
29547;DHT22;40782;47.264;11.330;2023-03-31T06:45:47;7.10;99.90
29547;DHT22;40782;47.264;11.330;2023-03-31T06:48:14;7.10;99.90
29547;DHT22;40782;47.264;11.330;2023-03-31T06:50:41;7.20;99.90
29547;DHT22;40782;47.264;11.330;2023-03-31T06:53:08;7.20;99.90
29547;DHT22;40782;47.264;11.330;2023-03-31T06:55:35;7.30;99.90
29547;DHT22;40782;47.264;11.330;2023-03-31T06:58:03;7.40;99.90
29547;DHT22;40782;47.264;11.330;2023-03-31T07:00:30;7.40;99.90
29547;DHT22;40782;47.264;11.330;2023-03-31T07:02:59;7.40;99.90
29547;DHT22;40782;47.264;11.330;2023-03-31T07:05:28;7.40;99.90
29547;DHT22;40782;47.264;11.330;2023-03-31T07:07:56;7.40;99.90
29547;DHT22;40782;47.264;11.330;2023-03-31T07:10:24;7.50;99.90
29547;DHT22;40782;47.264;11.330;2023-03-31T07:12:51;7.50;99.90
29547;DHT22;40782;47.264;11.330;2023-03-31T07:15:18;7.50;99.90
29547;DHT22;40782;47.264;11.330;2023-03-31T07:17:45;7.60;99.90
29547;DHT22;40782;47.264;11.330;2023-03-31T07:20:17;7.70;99.90
29547;DHT22;40782;47.264;11.330;2023-03-31T07:22:44;7.80;99.90
29547;DHT22;40782;47.264;11.330;2023-03-31T07:25:13;7.90;99.90
29547;DHT22;40782;47.264;11.330;2023-03-31T07:27:40;8.00;99.90
29547;DHT22;40782;47.264;11.330;2023-03-31T07:30:08;8.00;99.90
29547;DHT22;40782;47.264;11.330;2023-03-31T07:32:35;8.10;99.90
29547;DHT22;40782;47.264;11.330;2023-03-31T07:35:05;8.10;99.90
29547;DHT22;40782;47.264;11.330;2023-03-31T07:37:35;8.10;99.90
29547;DHT22;40782;47.264;11.330;2023-03-31T07:40:02;8.10;99.90
29547;DHT22;40782;47.264;11.330;2023-03-31T07:42:31;8.20;99.90
29547;DHT22;40782;47.264;11.330;2023-03-31T07:44:58;8.30;99.90
29547;DHT22;40782;47.264;11.330;2023-03-31T07:47:25;8.30;33.60
29547;DHT22;40782;47.264;11.330;2023-03-31T07:49:52;8.30;20.20
29547;DHT22;40782;47.264;11.330;2023-03-31T07:52:19;8.40;15.80
29547;DHT22;40782;47.264;11.330;2023-03-31T07:54:48;8.40;1.00
29547;DHT22;40782;47.264;11.330;2023-03-31T07:57:15;8.50;7.60
29547;DHT22;40782;47.264;11.330;2023-03-31T07:59:46;8.50;1.00
29547;DHT22;40782;47.264;11.330;2023-03-31T08:02:14;8.50;1.00
29547;DHT22;40782;47.264;11.330;2023-03-31T08:04:42;8.60;1.00
29547;DHT22;40782;47.264;11.330;2023-03-31T08:07:09;8.60;1.00
29547;DHT22;40782;47.264;11.330;2023-03-31T08:09:37;8.70;1.00
29547;DHT22;40782;47.264;11.330;2023-03-31T08:12:06;8.70;1.00
29547;DHT22;40782;47.264;11.330;2023-03-31T08:14:33;8.80;1.00
29547;DHT22;40782;47.264;11.330;2023-03-31T08:17:00;8.80;1.00
29547;DHT22;40782;47.264;11.330;2023-03-31T08:19:28;8.90;1.00
29547;DHT22;40782;47.264;11.330;2023-03-31T08:21:55;9.10;1.00
29547;DHT22;40782;47.264;11.330;2023-03-31T08:24:22;9.20;1.00
29547;DHT22;40782;47.264;11.330;2023-03-31T08:26:49;9.20;99.90
29547;DHT22;40782;47.264;11.330;2023-03-31T08:29:18;9.20;1.00
29547;DHT22;40782;47.264;11.330;2023-03-31T08:31:45;9.20;1.00
29547;DHT22;40782;47.264;11.330;2023-03-31T08:34:13;9.20;1.00
29547;DHT22;40782;47.264;11.330;2023-03-31T08:36:40;9.30;1.00
29547;DHT22;40782;47.264;11.330;2023-03-31T08:39:07;9.40;1.00
29547;DHT22;40782;47.264;11.330;2023-03-31T08:41:40;9.40;1.00
29547;DHT22;40782;47.264;11.330;2023-03-31T08:44:10;9.60;1.00
29547;DHT22;40782;47.264;11.330;2023-03-31T08:46:40;9.60;99.90
29547;DHT22;40782;47.264;11.330;2023-03-31T08:49:08;9.60;99.90
29547;DHT22;40782;47.264;11.330;2023-03-31T08:51:38;9.70;99.90
29547;DHT22;40782;47.264;11.330;2023-03-31T08:54:08;9.90;99.90
29547;DHT22;40782;47.264;11.330;2023-03-31T08:56:37;10.00;1.00
29547;DHT22;40782;47.264;11.330;2023-03-31T08:59:06;10.10;99.90
29547;DHT22;40782;47.264;11.330;2023-03-31T09:01:44;10.10;1.00
29547;DHT22;40782;47.264;11.330;2023-03-31T09:04:18;10.20;99.90
29547;DHT22;40782;47.264;11.330;2023-03-31T09:06:49;10.20;1.00
29547;DHT22;40782;47.264;11.330;2023-03-31T09:09:21;10.20;1.00
29547;DHT22;40782;47.264;11.330;2023-03-31T09:11:50;10.30;1.00
29547;DHT22;40782;47.264;11.330;2023-03-31T09:14:26;10.40;99.90
29547;DHT22;40782;47.264;11.330;2023-03-31T09:17:00;10.60;1.00
29547;DHT22;40782;47.264;11.330;2023-03-31T09:19:31;10.80;99.90
29547;DHT22;40782;47.264;11.330;2023-03-31T09:21:59;10.90;99.90
29547;DHT22;40782;47.264;11.330;2023-03-31T09:24:27;11.00;1.00
29547;DHT22;40782;47.264;11.330;2023-03-31T09:26:57;11.20;1.00
29547;DHT22;40782;47.264;11.330;2023-03-31T09:29:27;11.40;99.90
29547;DHT22;40782;47.264;11.330;2023-03-31T09:32:00;11.50;99.90
29547;DHT22;40782;47.264;11.330;2023-03-31T09:34:28;11.70;99.90
29547;DHT22;40782;47.264;11.330;2023-03-31T09:36:55;11.80;67.70
29547;DHT22;40782;47.264;11.330;2023-03-31T09:39:22;11.90;22.60
29547;DHT22;40782;47.264;11.330;2023-03-31T09:41:50;12.10;1.00
29547;DHT22;40782;47.264;11.330;2023-03-31T09:44:22;12.20;2.00
29547;DHT22;40782;47.264;11.330;2023-03-31T09:46:50;12.40;1.00
29547;DHT22;40782;47.264;11.330;2023-03-31T09:49:20;12.40;1.00
29547;DHT22;40782;47.264;11.330;2023-03-31T09:51:50;12.40;1.00
29547;DHT22;40782;47.264;11.330;2023-03-31T09:54:21;12.50;1.00
29547;DHT22;40782;47.264;11.330;2023-03-31T09:56:49;12.50;1.00
29547;DHT22;40782;47.264;11.330;2023-03-31T09:59:18;12.40;1.00
29547;DHT22;40782;47.264;11.330;2023-03-31T10:01:46;12.40;1.00
29547;DHT22;40782;47.264;11.330;2023-03-31T10:04:21;12.40;1.00
29547;DHT22;40782;47.264;11.330;2023-03-31T10:06:48;12.40;1.00
29547;DHT22;40782;47.264;11.330;2023-03-31T10:09:17;12.40;1.00
29547;DHT22;40782;47.264;11.330;2023-03-31T10:11:55;12.40;1.00
29547;DHT22;40782;47.264;11.330;2023-03-31T10:14:24;12.40;1.00
29547;DHT22;40782;47.264;11.330;2023-03-31T10:16:52;12.40;1.00
29547;DHT22;40782;47.264;11.330;2023-03-31T10:19:22;12.40;1.00
29547;DHT22;40782;47.264;11.330;2023-03-31T10:21:54;12.30;1.00
29547;DHT22;40782;47.264;11.330;2023-03-31T10:24:21;12.30;1.00
29547;DHT22;40782;47.264;11.330;2023-03-31T10:26:52;12.30;1.00
29547;DHT22;40782;47.264;11.330;2023-03-31T10:29:20;12.20;1.00
29547;DHT22;40782;47.264;11.330;2023-03-31T10:31:50;12.10;1.00
29547;DHT22;40782;47.264;11.330;2023-03-31T10:34:17;12.10;1.00
29547;DHT22;40782;47.264;11.330;2023-03-31T10:36:46;11.90;1.00
29547;DHT22;40782;47.264;11.330;2023-03-31T10:39:14;12.00;1.00
29547;DHT22;40782;47.264;11.330;2023-03-31T10:41:41;11.90;1.00
29547;DHT22;40782;47.264;11.330;2023-03-31T10:46:53;11.80;1.00
29547;DHT22;40782;47.264;11.330;2023-03-31T10:49:23;11.70;90.20
29547;DHT22;40782;47.264;11.330;2023-03-31T10:51:52;11.60;99.90
29547;DHT22;40782;47.264;11.330;2023-03-31T10:54:19;11.60;1.00
29547;DHT22;40782;47.264;11.330;2023-03-31T10:56:46;11.50;1.00
29547;DHT22;40782;47.264;11.330;2023-03-31T10:59:37;11.50;1.00
29547;DHT22;40782;47.264;11.330;2023-03-31T11:02:14;11.40;1.00
29547;DHT22;40782;47.264;11.330;2023-03-31T11:04:50;11.30;1.00
29547;DHT22;40782;47.264;11.330;2023-03-31T11:07:23;11.20;99.90
29547;DHT22;40782;47.264;11.330;2023-03-31T11:09:57;11.20;99.90
29547;DHT22;40782;47.264;11.330;2023-03-31T11:12:26;11.20;1.00
29547;DHT22;40782;47.264;11.330;2023-03-31T11:14:59;11.20;1.00
29547;DHT22;40782;47.264;11.330;2023-03-31T11:17:32;11.20;1.00
29547;DHT22;40782;47.264;11.330;2023-03-31T11:20:08;11.10;1.00
29547;DHT22;40782;47.264;11.330;2023-03-31T11:22:45;11.10;99.90
29547;DHT22;40782;47.264;11.330;2023-03-31T11:25:15;11.00;1.00
29547;DHT22;40782;47.264;11.330;2023-03-31T11:27:49;10.90;1.00
29547;DHT22;40782;47.264;11.330;2023-03-31T11:30:21;10.90;1.00
29547;DHT22;40782;47.264;11.330;2023-03-31T11:32:54;10.80;99.90
29547;DHT22;40782;47.264;11.330;2023-03-31T11:38:14;10.70;75.30
29547;DHT22;40782;47.264;11.330;2023-03-31T11:40:47;10.70;1.00
29547;DHT22;40782;47.264;11.330;2023-03-31T11:43:20;10.60;1.00
29547;DHT22;40782;47.264;11.330;2023-03-31T11:45:51;10.60;1.00
29547;DHT22;40782;47.264;11.330;2023-03-31T11:48:22;10.50;1.00
29547;DHT22;40782;47.264;11.330;2023-03-31T11:50:52;10.40;99.90
29547;DHT22;40782;47.264;11.330;2023-03-31T11:53:22;10.30;1.00
29547;DHT22;40782;47.264;11.330;2023-03-31T11:55:52;10.20;1.00
29547;DHT22;40782;47.264;11.330;2023-03-31T11:58:21;10.10;1.00
29547;DHT22;40782;47.264;11.330;2023-03-31T12:00:50;10.00;1.00
29547;DHT22;40782;47.264;11.330;2023-03-31T12:03:18;10.00;1.00
29547;DHT22;40782;47.264;11.330;2023-03-31T12:05:48;10.00;1.00
29547;DHT22;40782;47.264;11.330;2023-03-31T12:08:16;9.80;99.90
29547;DHT22;40782;47.264;11.330;2023-03-31T12:10:50;9.80;14.20
29547;DHT22;40782;47.264;11.330;2023-03-31T12:13:31;9.70;27.50
29547;DHT22;40782;47.264;11.330;2023-03-31T12:16:00;9.70;45.90
29547;DHT22;40782;47.264;11.330;2023-03-31T12:18:29;9.70;99.90
29547;DHT22;40782;47.264;11.330;2023-03-31T12:20:59;9.60;99.90
29547;DHT22;40782;47.264;11.330;2023-03-31T12:23:27;9.60;99.90
29547;DHT22;40782;47.264;11.330;2023-03-31T12:25:57;9.60;99.90
29547;DHT22;40782;47.264;11.330;2023-03-31T12:28:29;9.50;99.90
29547;DHT22;40782;47.264;11.330;2023-03-31T12:30:57;9.50;99.90
29547;DHT22;40782;47.264;11.330;2023-03-31T12:33:26;9.50;99.90
29547;DHT22;40782;47.264;11.330;2023-03-31T12:36:01;9.40;99.90
29547;DHT22;40782;47.264;11.330;2023-03-31T12:38:35;9.50;99.90
29547;DHT22;40782;47.264;11.330;2023-03-31T12:41:07;9.40;99.90
29547;DHT22;40782;47.264;11.330;2023-03-31T12:43:44;9.40;99.90
29547;DHT22;40782;47.264;11.330;2023-03-31T12:46:18;9.40;99.90
29547;DHT22;40782;47.264;11.330;2023-03-31T12:48:55;9.30;99.90
29547;DHT22;40782;47.264;11.330;2023-03-31T12:51:37;9.20;99.90
29547;DHT22;40782;47.264;11.330;2023-03-31T12:54:09;9.20;99.90
29547;DHT22;40782;47.264;11.330;2023-03-31T12:57:02;9.10;99.90
29547;DHT22;40782;47.264;11.330;2023-03-31T12:59:31;9.10;99.90
29547;DHT22;40782;47.264;11.330;2023-03-31T13:04:41;8.70;99.90
29547;DHT22;40782;47.264;11.330;2023-03-31T13:07:11;8.60;99.90
29547;DHT22;40782;47.264;11.330;2023-03-31T13:09:42;8.40;99.90
29547;DHT22;40782;47.264;11.330;2023-03-31T13:12:13;8.30;99.90
29547;DHT22;40782;47.264;11.330;2023-03-31T13:14:42;8.10;99.90
29547;DHT22;40782;47.264;11.330;2023-03-31T13:17:23;8.10;99.90
29547;DHT22;40782;47.264;11.330;2023-03-31T13:19:50;8.00;99.90
29547;DHT22;40782;47.264;11.330;2023-03-31T13:22:31;8.00;99.90
29547;DHT22;40782;47.264;11.330;2023-03-31T13:27:48;8.10;99.90
29547;DHT22;40782;47.264;11.330;2023-03-31T13:33:03;8.10;99.90
29547;DHT22;40782;47.264;11.330;2023-03-31T13:35:34;8.20;99.90
29547;DHT22;40782;47.264;11.330;2023-03-31T13:38:05;8.20;99.90
29547;DHT22;40782;47.264;11.330;2023-03-31T13:40:53;8.00;99.90
29547;DHT22;40782;47.264;11.330;2023-03-31T13:43:27;8.10;99.90
29547;DHT22;40782;47.264;11.330;2023-03-31T13:46:00;8.10;99.90
29547;DHT22;40782;47.264;11.330;2023-03-31T13:48:36;8.10;99.90
29547;DHT22;40782;47.264;11.330;2023-03-31T13:51:09;8.20;99.90
29547;DHT22;40782;47.264;11.330;2023-03-31T13:53:52;8.20;99.90
29547;DHT22;40782;47.264;11.330;2023-03-31T13:56:31;8.30;99.90
29547;DHT22;40782;47.264;11.330;2023-03-31T13:59:16;8.30;99.90
29547;DHT22;40782;47.264;11.330;2023-03-31T14:01:57;8.30;99.90
29547;DHT22;40782;47.264;11.330;2023-03-31T14:04:30;8.30;99.90
29547;DHT22;40782;47.264;11.330;2023-03-31T14:07:05;8.40;99.90
29547;DHT22;40782;47.264;11.330;2023-03-31T14:09:35;8.50;99.90
29547;DHT22;40782;47.264;11.330;2023-03-31T14:12:17;8.50;99.90
29547;DHT22;40782;47.264;11.330;2023-03-31T14:14:49;8.50;99.90
29547;DHT22;40782;47.264;11.330;2023-03-31T14:17:18;8.50;99.90
29547;DHT22;40782;47.264;11.330;2023-03-31T14:20:02;8.40;99.90
29547;DHT22;40782;47.264;11.330;2023-03-31T14:22:40;8.50;99.90
29547;DHT22;40782;47.264;11.330;2023-03-31T14:25:10;8.50;99.90
29547;DHT22;40782;47.264;11.330;2023-03-31T14:27:43;8.60;99.90
29547;DHT22;40782;47.264;11.330;2023-03-31T14:30:15;8.60;99.90
29547;DHT22;40782;47.264;11.330;2023-03-31T14:32:46;8.60;99.90
29547;DHT22;40782;47.264;11.330;2023-03-31T14:35:23;8.50;99.90
29547;DHT22;40782;47.264;11.330;2023-03-31T14:37:53;8.50;99.90
29547;DHT22;40782;47.264;11.330;2023-03-31T14:40:21;8.40;99.90
29547;DHT22;40782;47.264;11.330;2023-03-31T14:42:48;8.50;99.90
29547;DHT22;40782;47.264;11.330;2023-03-31T14:45:18;8.70;99.90
29547;DHT22;40782;47.264;11.330;2023-03-31T14:47:53;8.80;99.90
29547;DHT22;40782;47.264;11.330;2023-03-31T14:50:20;8.80;99.90
29547;DHT22;40782;47.264;11.330;2023-03-31T14:52:48;8.80;99.90
29547;DHT22;40782;47.264;11.330;2023-03-31T14:55:15;8.70;99.90
29547;DHT22;40782;47.264;11.330;2023-03-31T14:57:43;8.80;99.90
29547;DHT22;40782;47.264;11.330;2023-03-31T15:00:13;9.00;99.90
29547;DHT22;40782;47.264;11.330;2023-03-31T15:02:43;9.50;99.90
29547;DHT22;40782;47.264;11.330;2023-03-31T15:05:14;10.00;99.90
29547;DHT22;40782;47.264;11.330;2023-03-31T15:07:45;10.20;99.90
29547;DHT22;40782;47.264;11.330;2023-03-31T15:10:15;10.10;99.90
29547;DHT22;40782;47.264;11.330;2023-03-31T15:12:44;9.90;99.90
29547;DHT22;40782;47.264;11.330;2023-03-31T15:15:12;9.60;99.90
29547;DHT22;40782;47.264;11.330;2023-03-31T15:17:40;9.30;1.00
29547;DHT22;40782;47.264;11.330;2023-03-31T15:20:25;9.10;99.90
29547;DHT22;40782;47.264;11.330;2023-03-31T15:22:53;9.10;98.70
29547;DHT22;40782;47.264;11.330;2023-03-31T15:25:20;9.00;50.60
29547;DHT22;40782;47.264;11.330;2023-03-31T15:27:48;9.10;99.90
29547;DHT22;40782;47.264;11.330;2023-03-31T15:30:17;9.00;26.00
29547;DHT22;40782;47.264;11.330;2023-03-31T15:32:45;9.10;99.90
29547;DHT22;40782;47.264;11.330;2023-03-31T15:35:18;9.60;99.90
29547;DHT22;40782;47.264;11.330;2023-03-31T15:37:47;10.70;99.90
29547;DHT22;40782;47.264;11.330;2023-03-31T15:40:16;11.60;99.90
29547;DHT22;40782;47.264;11.330;2023-03-31T15:42:44;12.40;99.90
29547;DHT22;40782;47.264;11.330;2023-03-31T15:45:23;13.50;84.60
29547;DHT22;40782;47.264;11.330;2023-03-31T15:48:01;13.90;1.00
29547;DHT22;40782;47.264;11.330;2023-03-31T15:50:29;14.30;99.90
29547;DHT22;40782;47.264;11.330;2023-03-31T15:52:59;14.50;99.90
29547;DHT22;40782;47.264;11.330;2023-03-31T15:55:29;14.30;99.90
29547;DHT22;40782;47.264;11.330;2023-03-31T15:57:56;14.30;99.90
29547;DHT22;40782;47.264;11.330;2023-03-31T16:00:40;14.00;1.00
29547;DHT22;40782;47.264;11.330;2023-03-31T16:03:13;14.40;1.00
29547;DHT22;40782;47.264;11.330;2023-03-31T16:05:46;14.70;1.00
29547;DHT22;40782;47.264;11.330;2023-03-31T16:08:17;14.80;1.00
29547;DHT22;40782;47.264;11.330;2023-03-31T16:10:47;14.10;1.00
29547;DHT22;40782;47.264;11.330;2023-03-31T16:13:17;13.70;1.00